createdAt,value
2019-04-21T00:00:35.336Z,303.31
2019-04-21T00:01:39.866Z,303.44
2019-04-21T00:02:37.749Z,302.84
2019-04-21T00:03:42.285Z,303.51
2019-04-21T00:04:46.545Z,302.89
2019-04-21T00:05:52.976Z,302.80
2019-04-21T00:07:01.275Z,302.20
2019-04-21T00:07:54.317Z,303.03
2019-04-21T00:09:00.882Z,302.78
2019-04-21T00:10:57.836Z,303.21
2019-04-21T00:11:55.674Z,302.55
2019-04-21T00:12:52.323Z,303.62
2019-04-21T00:13:47.030Z,303.22
2019-04-21T00:14:45.032Z,303.14
2019-04-21T00:15:42.279Z,302.73
2019-04-21T00:16:44.144Z,303.03
2019-04-21T00:17:35.078Z,303.57
2019-04-21T00:18:40.691Z,303.13
2019-04-21T00:19:37.062Z,302.47
2019-04-21T00:20:39.636Z,303.20
2019-04-21T00:21:40.490Z,303.17
2019-04-21T00:22:44.337Z,303.02
2019-04-21T00:23:53.842Z,303.05
2019-04-21T00:25:46.140Z,303.56
2019-04-21T00:26:53.147Z,302.93
2019-04-21T00:27:55.224Z,303.08
2019-04-21T00:28:59.412Z,303.00
2019-04-21T00:29:56.671Z,303.33
2019-04-21T00:30:50.877Z,302.63
2019-04-21T00:31:45.557Z,303.04
2019-04-21T00:32:46.049Z,303.09
2019-04-21T00:33:39.174Z,302.75
2019-04-21T00:34:34.286Z,303.33
2019-04-21T00:35:41.456Z,303.02
2019-04-21T00:36:47.549Z,303.24
2019-04-21T00:37:53.174Z,303.61
2019-04-21T00:39:09.542Z,303.11
2019-04-21T00:40:02.172Z,303.46
2019-04-21T00:40:56.714Z,303.00
2019-04-21T00:41:53.747Z,303.20
2019-04-21T00:42:48.754Z,302.74
2019-04-21T00:43:49.403Z,303.40
2019-04-21T00:44:54.240Z,303.05
2019-04-21T00:45:44.876Z,302.70
2019-04-21T00:46:47.239Z,302.58
2019-04-21T00:47:51.137Z,303.67
2019-04-21T00:48:53.571Z,302.88
2019-04-21T00:49:56.522Z,303.10
2019-04-21T00:51:10.623Z,302.35
2019-04-21T00:52:07.240Z,302.94
2019-04-21T00:53:00.451Z,302.93
2019-04-21T00:55:10.960Z,302.69
2019-04-21T00:55:59.704Z,303.17
2019-04-21T00:56:56.259Z,302.89
2019-04-21T00:57:57.195Z,303.25
2019-04-21T00:58:59.835Z,303.88
2019-04-21T00:59:52.175Z,303.36
2019-04-21T01:01:00.439Z,303.72
2019-04-21T01:01:55.502Z,303.24
2019-04-21T01:02:56.167Z,303.36
2019-04-21T01:03:57.729Z,303.04
2019-04-21T01:05:00.048Z,303.15
2019-04-21T01:06:14.365Z,303.27
2019-04-21T01:06:57.626Z,304.09
2019-04-21T01:07:54.653Z,303.50
2019-04-21T01:08:55.073Z,303.05
2019-04-21T01:09:50.929Z,303.08
2019-04-21T01:10:47.365Z,303.38
2019-04-21T01:11:55.295Z,303.52
2019-04-21T01:12:54.703Z,303.49
2019-04-21T01:13:58.001Z,303.06
2019-04-21T01:14:58.161Z,303.62
2019-04-21T01:15:52.790Z,303.44
2019-04-21T01:16:57.637Z,303.06
2019-04-21T01:17:52.175Z,304.29
2019-04-21T01:18:54.574Z,303.49
2019-04-21T01:19:50.642Z,303.38
2019-04-21T01:20:33.164Z,303.38
2019-04-21T01:21:32.145Z,303.47
2019-04-21T01:22:32.101Z,303.20
2019-04-21T01:23:32.108Z,303.66
2019-04-21T01:24:36.177Z,303.45
2019-04-21T01:25:38.191Z,303.49
2019-04-21T01:26:43.786Z,304.02
2019-04-21T01:27:53.846Z,303.50
2019-04-21T01:28:54.449Z,302.98
2019-04-21T01:29:58.761Z,303.23
2019-04-21T01:30:53.558Z,303.79
2019-04-21T01:31:48.237Z,303.05
2019-04-21T01:32:53.215Z,303.82
2019-04-21T01:33:57.482Z,303.83
2019-04-21T01:34:53.255Z,303.48
2019-04-21T01:35:54.911Z,303.87
2019-04-21T01:36:52.925Z,303.24
2019-04-21T01:37:57.764Z,303.68
2019-04-21T01:38:58.288Z,303.30
2019-04-21T01:39:54.505Z,302.48
2019-04-21T01:40:57.124Z,304.33
2019-04-21T01:41:57.230Z,303.19
2019-04-21T01:42:51.414Z,303.88
2019-04-21T01:43:50.343Z,302.91
2019-04-21T01:44:53.475Z,302.87
2019-04-21T01:45:48.765Z,303.51
2019-04-21T01:46:49.046Z,303.54
2019-04-21T01:47:52.178Z,303.11
2019-04-21T01:48:49.398Z,303.38
2019-04-21T01:49:45.353Z,303.26
2019-04-21T01:50:51.268Z,303.50
2019-04-21T01:52:03.121Z,303.13
2019-04-21T01:52:56.005Z,303.96
2019-04-21T01:53:55.135Z,303.76
2019-04-21T01:54:55.130Z,303.40
2019-04-21T01:55:58.742Z,304.02
2019-04-21T01:56:51.238Z,303.75
2019-04-21T01:57:52.158Z,304.20
2019-04-21T01:58:44.348Z,303.68
2019-04-21T01:59:48.773Z,303.41
2019-04-21T02:00:48.255Z,304.11
2019-04-21T02:01:52.335Z,304.46
2019-04-21T02:02:59.279Z,303.93
2019-04-21T02:04:57.581Z,303.72
2019-04-21T02:06:00.020Z,304.00
2019-04-21T02:06:57.297Z,303.72
2019-04-21T02:08:51.455Z,303.48
2019-04-21T02:09:59.292Z,303.99
2019-04-21T02:10:56.048Z,303.31
2019-04-21T02:11:56.368Z,303.92
2019-04-21T02:12:52.459Z,303.39
2019-04-21T02:13:57.192Z,304.09
2019-04-21T02:15:00.430Z,303.19
2019-04-21T02:15:55.547Z,303.66
2019-04-21T02:16:52.106Z,304.78
2019-04-21T02:17:53.783Z,303.27
2019-04-21T02:18:52.968Z,303.90
2019-04-21T02:19:51.457Z,303.65
2019-04-21T02:20:41.007Z,303.33
2019-04-21T02:21:48.843Z,303.52
2019-04-21T02:23:10.015Z,304.74
2019-04-21T02:23:58.688Z,304.22
2019-04-21T02:24:57.771Z,303.96
2019-04-21T02:25:58.786Z,303.69
2019-04-21T02:26:57.314Z,303.91
2019-04-21T02:27:59.492Z,303.51
2019-04-21T02:29:01.845Z,304.25
2019-04-21T02:29:55.929Z,304.01
2019-04-21T02:32:14.282Z,303.40
2019-04-21T02:33:13.735Z,304.08
2019-04-21T02:34:04.524Z,304.01
2019-04-21T02:36:17.073Z,304.00
2019-04-21T02:37:17.641Z,303.80
2019-04-21T02:38:11.970Z,304.90
2019-04-21T02:39:15.886Z,303.74
2019-04-21T02:40:57.916Z,303.59
2019-04-21T02:42:02.896Z,303.89
2019-04-21T02:43:05.674Z,304.48
2019-04-21T02:44:08.627Z,303.59
2019-04-21T02:45:00.341Z,304.23
2019-04-21T02:46:04.792Z,303.44
2019-04-21T02:47:14.254Z,304.64
2019-04-21T02:48:08.883Z,304.24
2019-04-21T02:49:05.637Z,303.99
2019-04-21T02:50:09.916Z,304.67
2019-04-21T02:50:57.727Z,304.81
2019-04-21T02:52:27.461Z,304.22
2019-04-21T02:53:05.509Z,304.49
2019-04-21T02:54:35.925Z,304.57
2019-04-21T02:55:02.727Z,304.79
2019-04-21T02:56:05.711Z,304.79
2019-04-21T02:58:06.221Z,304.81
2019-04-21T02:59:05.309Z,304.44
2019-04-21T03:00:06.433Z,304.83
2019-04-21T03:01:10.043Z,304.30
2019-04-21T03:04:06.242Z,304.13
2019-04-21T03:05:02.147Z,303.99
2019-04-21T03:06:15.387Z,304.70
2019-04-21T03:07:09.707Z,304.41
2019-04-21T03:08:05.624Z,305.01
2019-04-21T03:10:00.111Z,304.48
2019-04-21T03:11:09.086Z,304.35
2019-04-21T03:13:08.941Z,304.61
2019-04-21T03:14:11.061Z,304.24
2019-04-21T03:15:04.345Z,303.70
2019-04-21T03:16:09.493Z,304.67
2019-04-21T03:17:09.632Z,304.18
2019-04-21T03:18:09.742Z,304.05
2019-04-21T03:20:02.899Z,304.17
2019-04-21T03:22:05.170Z,304.47
2019-04-21T03:23:07.817Z,304.51
2019-04-21T03:24:05.856Z,304.98
2019-04-21T03:26:16.490Z,304.17
2019-04-21T03:29:05.830Z,304.47
2019-04-21T03:36:38.386Z,303.48
2019-04-21T03:38:06.194Z,304.26
2019-04-21T03:39:04.662Z,304.79
2019-04-21T03:40:03.264Z,304.23
2019-04-21T03:41:08.588Z,304.02
2019-04-21T03:42:07.352Z,304.03
2019-04-21T03:43:04.442Z,304.36
2019-04-21T03:44:12.344Z,304.43
2019-04-21T03:45:25.347Z,304.55
2019-04-21T03:46:01.258Z,304.02
2019-04-21T03:47:08.353Z,304.40
2019-04-21T03:48:04.723Z,304.30
2019-04-21T03:51:04.388Z,304.89
2019-04-21T03:52:11.118Z,304.65
2019-04-21T03:53:03.469Z,304.33
2019-04-21T03:53:59.980Z,304.38
2019-04-21T03:55:12.544Z,304.57
2019-04-21T03:57:19.965Z,305.09
2019-04-21T03:58:16.962Z,303.69
2019-04-21T04:00:18.126Z,304.72
2019-04-21T04:03:35.287Z,303.94
2019-04-21T04:05:05.726Z,304.23
2019-04-21T04:06:08.024Z,304.49
2019-04-21T04:07:19.092Z,303.91
2019-04-21T04:08:07.618Z,304.64
2019-04-21T04:09:14.431Z,304.48
2019-04-21T04:10:08.305Z,305.07
2019-04-21T04:11:58.321Z,304.69
2019-04-21T04:13:07.285Z,304.47
2019-04-21T04:14:20.268Z,304.56
2019-04-21T04:15:00.644Z,304.42
2019-04-21T04:17:14.657Z,304.48
2019-04-21T04:18:03.793Z,304.20
2019-04-21T04:18:59.117Z,303.70
2019-04-21T04:20:05.365Z,304.75
2019-04-21T04:21:16.859Z,305.38
2019-04-21T04:22:04.040Z,304.72
2019-04-21T04:23:03.002Z,304.45
2019-04-21T04:25:04.603Z,304.69
2019-04-21T04:26:16.964Z,304.91
2019-04-21T04:27:12.731Z,305.22
2019-04-21T04:30:08.090Z,305.12
2019-04-21T04:31:05.107Z,305.44
2019-04-21T04:31:55.401Z,305.27
2019-04-21T04:32:57.484Z,304.90
2019-04-21T04:34:05.018Z,306.15
2019-04-21T04:35:03.890Z,305.70
2019-04-21T04:37:05.966Z,306.25
2019-04-21T04:38:03.670Z,306.23
2019-04-21T04:39:17.989Z,305.88
2019-04-21T04:41:09.665Z,305.62
2019-04-21T04:42:27.221Z,307.22
2019-04-21T04:43:07.930Z,306.00
2019-04-21T04:44:05.166Z,306.21
2019-04-21T04:46:03.805Z,306.33
2019-04-21T04:49:10.604Z,306.28
2019-04-21T04:51:16.947Z,305.00
2019-04-21T04:52:52.597Z,304.52
2019-04-21T04:53:54.476Z,305.34
2019-04-21T04:56:05.007Z,304.16
2019-04-21T04:57:10.005Z,304.90
2019-04-21T05:00:15.662Z,304.67
2019-04-21T05:01:28.791Z,305.12
2019-04-21T05:02:14.971Z,304.92
2019-04-21T05:03:01.435Z,305.08
2019-04-21T05:04:05.892Z,305.33
2019-04-21T05:06:18.682Z,304.73
2019-04-21T05:07:07.077Z,304.87
2019-04-21T05:08:19.727Z,304.74
2019-04-21T05:09:15.101Z,304.77
2019-04-21T05:10:00.043Z,303.59
2019-04-21T05:11:07.770Z,304.02
2019-04-21T05:11:55.295Z,303.78
2019-04-21T05:12:57.034Z,304.88
2019-04-21T05:14:59.263Z,304.04
2019-04-21T05:16:01.582Z,304.40
2019-04-21T05:17:03.937Z,304.52
2019-04-21T05:18:01.155Z,304.10
2019-04-21T05:21:04.228Z,303.80
2019-04-21T05:21:55.484Z,304.48
2019-04-21T05:22:53.209Z,304.85
2019-04-21T05:23:51.036Z,305.07
2019-04-21T05:24:49.264Z,303.97
2019-04-21T05:25:48.116Z,304.15
2019-04-21T05:26:47.906Z,304.20
2019-04-21T05:27:47.348Z,304.09
2019-04-21T05:28:44.690Z,304.00
2019-04-21T05:29:53.934Z,304.55
2019-04-21T05:30:55.345Z,303.53
2019-04-21T05:32:07.861Z,303.92
2019-04-21T05:32:52.540Z,303.93
2019-04-21T05:33:57.658Z,304.13
2019-04-21T05:34:50.886Z,304.57
2019-04-21T05:35:49.295Z,304.09
2019-04-21T05:36:52.343Z,303.83
2019-04-21T05:37:50.395Z,304.39
2019-04-21T05:38:50.278Z,303.86
2019-04-21T05:39:49.278Z,303.81
2019-04-21T05:40:46.025Z,304.80
2019-04-21T05:41:41.357Z,304.38
2019-04-21T05:42:45.559Z,304.75
2019-04-21T05:43:54.127Z,304.72
2019-04-21T05:44:58.806Z,303.86
2019-04-21T05:45:53.314Z,304.50
2019-04-21T05:47:05.565Z,304.36
2019-04-21T05:47:57.916Z,303.80
2019-04-21T05:48:53.130Z,304.09
2019-04-21T05:49:50.946Z,304.19
2019-04-21T05:50:52.263Z,304.84
2019-04-21T05:51:44.317Z,304.16
2019-04-21T05:52:45.972Z,303.72
2019-04-21T05:54:03.092Z,304.06
2019-04-21T05:54:57.290Z,304.17
2019-04-21T05:56:50.563Z,304.86
2019-04-21T05:57:46.704Z,304.15
2019-04-21T05:58:49.696Z,304.28
2019-04-21T05:59:49.868Z,303.26
2019-04-21T06:01:06.473Z,304.47
2019-04-21T06:01:57.258Z,304.80
2019-04-21T06:02:59.422Z,304.51
2019-04-21T06:03:57.047Z,303.91
2019-04-21T06:06:00.444Z,304.35
2019-04-21T06:06:56.794Z,304.47
2019-04-21T06:07:52.509Z,304.66
2019-04-21T06:08:49.696Z,304.47
2019-04-21T06:09:56.885Z,304.63
2019-04-21T06:10:55.578Z,304.40
2019-04-21T06:11:51.404Z,304.53
2019-04-21T06:13:03.645Z,304.11
2019-04-21T06:13:55.561Z,304.43
2019-04-21T06:14:55.856Z,303.80
2019-04-21T06:16:55.597Z,303.71
2019-04-21T06:17:57.859Z,302.81
2019-04-21T06:19:00.935Z,303.48
2019-04-21T06:19:55.871Z,303.30
2019-04-21T06:20:54.576Z,303.14
2019-04-21T06:21:55.736Z,303.26
2019-04-21T06:22:52.029Z,303.35
2019-04-21T06:23:50.131Z,303.26
2019-04-21T06:25:21.694Z,303.27
2019-04-21T06:27:08.217Z,303.26
2019-04-21T06:27:52.665Z,303.73
2019-04-21T06:28:50.101Z,304.22
2019-04-21T06:29:54.656Z,303.74
2019-04-21T06:31:00.493Z,303.11
2019-04-21T06:32:58.352Z,303.65
2019-04-21T06:33:50.696Z,302.27
2019-04-21T06:36:21.587Z,303.35
2019-04-21T06:36:57.289Z,303.73
2019-04-21T06:37:52.254Z,303.77
2019-04-21T06:39:04.734Z,303.15
2019-04-21T06:40:09.363Z,302.86
2019-04-21T06:41:00.437Z,303.93
2019-04-21T06:41:49.150Z,303.94
2019-04-21T06:43:07.912Z,303.07
2019-04-21T06:45:54.004Z,303.05
2019-04-21T06:46:55.142Z,302.97
2019-04-21T06:47:57.979Z,303.40
2019-04-21T06:48:55.432Z,302.85
2019-04-21T06:49:50.877Z,303.75
2019-04-21T06:50:52.433Z,303.20
2019-04-21T06:51:54.521Z,302.87
2019-04-21T06:53:01.112Z,303.54
2019-04-21T06:53:59.368Z,302.79
2019-04-21T06:54:57.256Z,302.97
2019-04-21T06:55:57.477Z,303.05
2019-04-21T06:56:52.320Z,303.18
2019-04-21T06:57:51.921Z,302.86
2019-04-21T06:58:51.780Z,304.09
2019-04-21T06:59:54.224Z,302.59
2019-04-21T07:00:47.705Z,302.80
2019-04-21T07:02:06.950Z,303.03
2019-04-21T07:03:01.191Z,303.32
2019-04-21T07:04:03.133Z,302.74
2019-04-21T07:04:54.763Z,303.77
2019-04-21T07:05:57.281Z,303.12
2019-04-21T07:06:54.654Z,303.60
2019-04-21T07:08:10.962Z,303.15
2019-04-21T07:09:02.492Z,302.37
2019-04-21T07:09:58.500Z,303.38
2019-04-21T07:10:51.702Z,302.62
2019-04-21T07:11:49.050Z,302.92
2019-04-21T07:12:53.994Z,302.94
2019-04-21T07:13:44.034Z,302.54
2019-04-21T07:14:52.793Z,303.30
2019-04-21T07:15:53.811Z,302.55
2019-04-21T07:17:54.280Z,302.56
2019-04-21T07:19:00.067Z,303.39
2019-04-21T07:19:57.160Z,302.24
2019-04-21T07:20:53.255Z,302.50
2019-04-21T07:21:50.987Z,303.22
2019-04-21T07:22:56.837Z,302.63
2019-04-21T07:23:55.152Z,303.32
2019-04-21T07:24:48.219Z,302.80
2019-04-21T07:25:53.229Z,303.01
2019-04-21T07:26:56.872Z,302.45
2019-04-21T07:27:52.302Z,303.25
2019-04-21T07:28:56.271Z,302.46
2019-04-21T07:29:53.391Z,302.95
2019-04-21T07:30:51.543Z,302.73
2019-04-21T07:31:59.242Z,302.58
2019-04-21T07:32:58.089Z,302.49
2019-04-21T07:34:52.173Z,302.69
2019-04-21T07:35:50.904Z,302.62
2019-04-21T07:37:53.652Z,303.45
2019-04-21T07:38:50.379Z,302.90
2019-04-21T07:39:49.930Z,303.23
2019-04-21T07:40:45.492Z,302.98
2019-04-21T07:41:48.412Z,303.34
2019-04-21T07:42:56.128Z,302.41
2019-04-21T07:43:44.045Z,302.57
2019-04-21T07:44:44.799Z,302.86
2019-04-21T07:45:47.249Z,302.81
2019-04-21T07:46:47.186Z,302.61
2019-04-21T07:47:53.145Z,303.38
2019-04-21T07:48:49.501Z,303.07
2019-04-21T07:49:54.962Z,302.60
2019-04-21T07:50:51.429Z,303.05
2019-04-21T07:51:54.910Z,302.77
2019-04-21T07:52:53.597Z,302.48
2019-04-21T07:53:58.379Z,302.96
2019-04-21T07:54:57.373Z,302.64
2019-04-21T07:55:30.195Z,302.58
2019-04-21T07:56:34.938Z,302.70
2019-04-21T07:57:45.680Z,302.00
2019-04-21T07:58:53.880Z,302.59
2019-04-21T07:59:56.547Z,302.33
2019-04-21T08:01:11.919Z,303.51
2019-04-21T08:01:50.860Z,304.40
2019-04-21T08:02:52.405Z,302.32
2019-04-21T08:05:53.683Z,303.08
2019-04-21T08:07:51.880Z,303.86
2019-04-21T08:08:50.686Z,303.18
2019-04-21T08:09:47.281Z,303.16
2019-04-21T08:10:45.284Z,303.65
2019-04-21T08:11:41.628Z,303.08
2019-04-21T08:12:49.683Z,303.54
2019-04-21T08:14:01.081Z,303.44
2019-04-21T08:14:50.798Z,302.03
2019-04-21T08:16:07.726Z,302.27
2019-04-21T08:16:51.170Z,303.23
2019-04-21T08:17:48.038Z,302.69
2019-04-21T08:18:50.217Z,302.53
2019-04-21T08:19:42.565Z,302.97
2019-04-21T08:20:47.780Z,301.52
2019-04-21T08:21:53.062Z,302.32
2019-04-21T08:22:51.701Z,301.09
2019-04-21T08:23:50.239Z,301.53
2019-04-21T08:24:52.126Z,301.78
2019-04-21T08:26:04.839Z,301.16
2019-04-21T08:26:52.577Z,301.65
2019-04-21T08:28:56.471Z,301.66
2019-04-21T08:29:52.182Z,301.50
2019-04-21T08:30:47.719Z,301.23
2019-04-21T08:31:56.170Z,301.08
2019-04-21T08:33:14.227Z,301.26
2019-04-21T08:33:56.107Z,301.21
2019-04-21T08:34:57.368Z,300.86
2019-04-21T08:36:51.590Z,300.08
2019-04-21T08:37:48.361Z,301.38
2019-04-21T08:38:49.608Z,301.00
2019-04-21T08:39:58.041Z,301.12
2019-04-21T08:40:49.237Z,301.19
2019-04-21T08:41:49.651Z,300.86
2019-04-21T08:42:53.987Z,300.25
2019-04-21T08:43:51.983Z,299.93
2019-04-21T08:44:52.964Z,300.71
2019-04-21T08:45:52.677Z,300.62
2019-04-21T08:46:54.701Z,299.61
2019-04-21T08:48:49.470Z,300.42
2019-04-21T08:49:48.633Z,300.20
2019-04-21T08:50:52.575Z,300.59
2019-04-21T08:51:56.636Z,300.50
2019-04-21T08:52:56.618Z,300.92
2019-04-21T08:54:49.663Z,299.58
2019-04-21T08:56:00.572Z,300.53
2019-04-21T08:56:46.727Z,300.30
2019-04-21T08:58:00.744Z,299.73
2019-04-21T08:58:52.911Z,300.59
2019-04-21T08:59:56.859Z,299.67
2019-04-21T09:00:47.112Z,299.95
2019-04-21T09:01:48.951Z,299.73
2019-04-21T09:02:47.347Z,300.72
2019-04-21T09:03:44.032Z,300.90
2019-04-21T09:04:48.021Z,300.05
2019-04-21T09:05:49.415Z,298.54
2019-04-21T09:06:58.684Z,300.07
2019-04-21T09:07:52.519Z,300.88
2019-04-21T09:08:46.082Z,299.64
2019-04-21T09:09:47.567Z,299.85
2019-04-21T09:10:47.054Z,301.15
2019-04-21T09:11:49.892Z,299.70
2019-04-21T09:12:46.692Z,299.07
2019-04-21T09:13:49.043Z,300.11
2019-04-21T09:14:52.757Z,299.76
2019-04-21T09:15:41.669Z,299.96
2019-04-21T09:16:41.095Z,300.68
2019-04-21T09:17:41.141Z,300.35
2019-04-21T09:18:40.422Z,300.24
2019-04-21T09:20:07.792Z,299.82
2019-04-21T09:21:49.970Z,298.77
2019-04-21T09:22:47.788Z,299.89
2019-04-21T09:23:44.914Z,300.40
2019-04-21T09:24:46.898Z,300.60
2019-04-21T09:25:47.300Z,300.63
2019-04-21T09:26:46.498Z,300.62
2019-04-21T09:27:42.138Z,300.42
2019-04-21T09:28:39.422Z,299.74
2019-04-21T09:29:36.744Z,298.70
2019-04-21T09:30:33.909Z,300.74
2019-04-21T09:31:33.791Z,299.99
2019-04-21T09:32:31.389Z,299.87
2019-04-21T09:33:33.444Z,300.03
2019-04-21T09:34:33.209Z,299.26
2019-04-21T09:35:29.079Z,300.60
2019-04-21T09:36:36.134Z,299.75
2019-04-21T09:37:39.561Z,299.75
2019-04-21T09:38:35.117Z,299.79
2019-04-21T09:39:30.061Z,300.22
2019-04-21T09:40:33.623Z,300.63
2019-04-21T09:41:29.625Z,299.90
2019-04-21T09:42:34.813Z,300.23
2019-04-21T09:43:37.700Z,299.58
2019-04-21T09:44:33.398Z,299.63
2019-04-21T09:45:28.604Z,300.19
2019-04-21T09:46:27.607Z,299.90
2019-04-21T09:47:35.147Z,298.90
2019-04-21T09:48:30.630Z,299.36
2019-04-21T09:49:31.277Z,299.98
2019-04-21T09:50:27.732Z,299.30
2019-04-21T09:51:27.810Z,300.30
2019-04-21T09:52:37.139Z,298.83
2019-04-21T09:53:33.220Z,300.59
2019-04-21T09:54:31.531Z,298.77
2019-04-21T09:55:36.474Z,298.94
2019-04-21T09:56:37.434Z,298.92
2019-04-21T09:57:38.260Z,298.58
2019-04-21T09:58:34.598Z,298.46
2019-04-21T09:59:33.518Z,299.95
2019-04-21T10:00:31.443Z,299.40
2019-04-21T10:01:38.270Z,300.14
2019-04-21T10:02:42.847Z,300.62
2019-04-21T10:03:37.128Z,299.02
2019-04-21T10:04:28.896Z,299.32
2019-04-21T10:05:27.335Z,300.15
2019-04-21T10:06:28.238Z,299.13
2019-04-21T10:07:33.384Z,297.67
2019-04-21T10:08:27.535Z,300.48
2019-04-21T10:09:26.527Z,299.24
2019-04-21T10:10:27.582Z,297.62
2019-04-21T10:11:26.925Z,298.62
2019-04-21T10:12:26.492Z,296.59
2019-04-21T10:13:27.429Z,298.82
2019-04-21T10:14:26.515Z,297.75
2019-04-21T10:15:28.241Z,299.21
2019-04-21T10:16:26.439Z,297.98
2019-04-21T10:17:27.549Z,298.95
2019-04-21T10:18:29.372Z,299.45
2019-04-21T10:19:27.509Z,298.10
2019-04-21T10:20:26.567Z,298.37
2019-04-21T10:21:27.727Z,299.08
2019-04-21T10:22:26.691Z,299.79
2019-04-21T10:23:27.431Z,300.17
2019-04-21T10:24:26.481Z,299.17
2019-04-21T10:25:26.375Z,297.22
2019-04-21T10:26:26.465Z,297.00
2019-04-21T10:27:27.322Z,299.50
2019-04-21T10:28:26.864Z,299.49
2019-04-21T10:29:29.523Z,299.45
2019-04-21T10:30:28.617Z,299.83
2019-04-21T10:31:27.020Z,299.59
2019-04-21T10:32:26.266Z,299.89
2019-04-21T10:33:26.346Z,298.27
2019-04-21T10:34:27.283Z,300.50
2019-04-21T10:35:26.348Z,298.80
2019-04-21T10:36:26.862Z,298.94
2019-04-21T10:37:38.857Z,299.47
2019-04-21T10:38:36.552Z,299.61
2019-04-21T10:39:27.416Z,299.68
2019-04-21T10:40:27.496Z,299.77
2019-04-21T10:41:27.479Z,299.02
2019-04-21T10:42:27.010Z,299.08
2019-04-21T10:43:27.478Z,299.53
2019-04-21T10:44:27.339Z,299.89
2019-04-21T10:45:26.163Z,300.52
2019-04-21T10:46:26.684Z,297.49
2019-04-21T10:47:26.965Z,298.93
2019-04-21T10:48:26.104Z,300.40
2019-04-21T10:49:26.606Z,299.91
2019-04-21T10:50:26.818Z,297.17
2019-04-21T10:51:26.086Z,298.94
2019-04-21T10:52:29.251Z,300.06
2019-04-21T10:53:27.061Z,299.53
2019-04-21T10:54:27.284Z,300.06
2019-04-21T10:55:45.011Z,299.28
2019-04-21T10:56:34.446Z,299.30
2019-04-21T10:57:28.331Z,299.16
2019-04-21T10:58:36.275Z,299.62
2019-04-21T10:59:35.311Z,300.49
2019-04-21T11:00:26.041Z,297.88
2019-04-21T11:01:27.199Z,298.90
2019-04-21T11:02:26.412Z,299.04
2019-04-21T11:03:26.849Z,295.69
2019-04-21T11:04:32.374Z,296.89
2019-04-21T11:05:27.039Z,298.64
2019-04-21T11:06:26.504Z,297.38
2019-04-21T11:07:31.375Z,299.26
2019-04-21T11:09:37.921Z,297.27
2019-04-21T11:10:36.521Z,299.31
2019-04-21T11:11:37.637Z,296.21
2019-04-21T11:12:39.100Z,298.35
2019-04-21T11:13:36.958Z,297.27
2019-04-21T11:14:36.483Z,298.22
2019-04-21T11:15:37.284Z,299.54
2019-04-21T11:16:37.170Z,298.76
2019-04-21T11:17:36.531Z,300.28
2019-04-21T11:18:37.749Z,298.87
2019-04-21T11:19:36.882Z,299.43
2019-04-21T11:20:37.226Z,299.43
2019-04-21T11:21:40.833Z,299.33
2019-04-21T11:22:38.194Z,300.95
2019-04-21T11:23:37.483Z,297.02
2019-04-21T11:24:36.712Z,296.96
2019-04-21T11:25:37.603Z,297.72
2019-04-21T11:26:37.825Z,300.79
2019-04-21T11:28:48.951Z,297.94
2019-04-21T11:29:48.037Z,300.21
2019-04-21T11:30:48.754Z,299.22
2019-04-21T11:31:49.338Z,299.83
2019-04-21T11:32:49.437Z,300.10
2019-04-21T11:33:53.562Z,300.61
2019-04-21T11:34:49.060Z,299.19
2019-04-21T11:35:49.461Z,298.99
2019-04-21T11:36:48.121Z,301.24
2019-04-21T11:37:48.342Z,300.86
2019-04-21T11:39:08.634Z,300.22
2019-04-21T11:39:55.313Z,297.05
2019-04-21T11:40:49.814Z,299.20
2019-04-21T11:41:48.016Z,298.82
2019-04-21T11:42:48.169Z,299.60
2019-04-21T11:43:48.860Z,298.46
2019-04-21T11:44:49.271Z,298.51
2019-04-21T11:45:48.528Z,299.03
2019-04-21T11:46:48.873Z,298.47
2019-04-21T11:47:48.246Z,298.33
2019-04-21T11:48:48.336Z,296.62
2019-04-21T11:49:49.258Z,297.66
2019-04-21T11:50:48.827Z,299.30
2019-04-21T11:51:48.967Z,299.14
2019-04-21T11:52:49.229Z,299.57
2019-04-21T11:53:48.797Z,298.42
2019-04-21T11:54:48.665Z,299.08
2019-04-21T11:55:49.943Z,297.79
2019-04-21T11:56:48.549Z,299.67
2019-04-21T11:57:49.791Z,299.58
2019-04-21T11:58:47.903Z,299.05
2019-04-21T11:59:47.994Z,298.68
2019-04-21T12:00:47.707Z,296.60
2019-04-21T12:01:47.743Z,298.21
2019-04-21T12:02:47.786Z,299.67
2019-04-21T12:03:47.667Z,299.84
2019-04-21T12:04:47.709Z,299.59
2019-04-21T12:05:47.793Z,298.68
2019-04-21T12:06:49.205Z,298.52
2019-04-21T12:07:47.627Z,299.62
2019-04-21T12:08:50.986Z,299.79
2019-04-21T12:09:48.629Z,297.39
2019-04-21T12:10:47.597Z,297.87
2019-04-21T12:11:47.569Z,299.17
2019-04-21T12:12:47.580Z,298.44
2019-04-21T12:13:47.941Z,299.07
2019-04-21T12:14:48.025Z,299.66
2019-04-21T12:15:47.580Z,300.29
2019-04-21T12:16:48.685Z,298.48
2019-04-21T12:17:48.087Z,299.77
2019-04-21T12:18:47.530Z,301.96
2019-04-21T12:19:48.526Z,303.06
2019-04-21T12:20:47.520Z,300.57
2019-04-21T12:22:00.399Z,301.86
2019-04-21T12:22:49.441Z,302.00
2019-04-21T12:23:48.128Z,302.98
2019-04-21T12:24:47.456Z,300.14
2019-04-21T12:25:47.474Z,302.47
2019-04-21T12:26:47.437Z,301.50
2019-04-21T12:27:48.009Z,299.04
2019-04-21T12:28:47.915Z,299.95
2019-04-21T12:29:48.004Z,299.92
2019-04-21T12:30:47.460Z,295.90
2019-04-21T12:31:47.639Z,296.75
2019-04-21T12:32:48.595Z,294.17
2019-04-21T12:33:47.827Z,297.64
2019-04-21T12:34:50.099Z,293.27
2019-04-21T12:35:48.189Z,292.01
2019-04-21T12:36:48.625Z,294.64
2019-04-21T12:37:48.890Z,292.10
2019-04-21T12:38:53.915Z,290.97
2019-04-21T12:39:48.628Z,293.88
2019-04-21T12:40:48.482Z,293.16
2019-04-21T12:41:48.738Z,290.69
2019-04-21T12:42:48.320Z,285.97
2019-04-21T12:43:48.598Z,287.96
2019-04-21T12:44:47.528Z,293.97
2019-04-21T12:45:47.241Z,289.73
2019-04-21T12:46:47.726Z,290.12
2019-04-21T12:47:49.952Z,288.22
2019-04-21T12:48:47.260Z,288.63
2019-04-21T12:49:47.789Z,290.81
2019-04-21T12:50:47.929Z,288.16
2019-04-21T12:51:48.050Z,290.59
2019-04-21T12:52:47.447Z,284.15
2019-04-21T12:53:47.768Z,289.22
2019-04-21T12:54:47.993Z,283.56
2019-04-21T12:55:48.055Z,285.01
2019-04-21T12:56:47.677Z,278.54
2019-04-21T12:57:47.680Z,285.26
2019-04-21T12:58:47.279Z,282.16
2019-04-21T12:59:47.127Z,283.79
2019-04-21T13:00:47.273Z,286.04
2019-04-21T13:01:47.115Z,285.83
2019-04-21T13:02:47.745Z,287.70
2019-04-21T13:03:47.978Z,288.27
2019-04-21T13:04:49.299Z,286.58
2019-04-21T13:05:47.552Z,285.51
2019-04-21T13:06:47.599Z,284.85
2019-04-21T13:07:47.053Z,286.02
2019-04-21T13:08:55.652Z,281.42
2019-04-21T13:09:48.436Z,285.84
2019-04-21T13:10:48.450Z,289.57
2019-04-21T13:11:47.051Z,283.68
2019-04-21T13:12:47.991Z,286.27
2019-04-21T13:13:48.097Z,285.95
2019-04-21T13:14:47.495Z,289.93
2019-04-21T13:15:47.537Z,284.44
2019-04-21T13:16:47.780Z,283.77
2019-04-21T13:17:47.409Z,283.29
2019-04-21T13:18:47.152Z,283.05
2019-04-21T13:19:47.305Z,285.28
2019-04-21T13:20:46.950Z,285.40
2019-04-21T13:21:47.932Z,285.56
2019-04-21T13:22:48.198Z,284.33
2019-04-21T13:23:47.242Z,281.88
2019-04-21T13:24:47.582Z,285.80
2019-04-21T13:25:47.896Z,280.73
2019-04-21T13:26:52.375Z,283.40
2019-04-21T13:27:49.220Z,282.19
2019-04-21T13:28:47.944Z,284.49
2019-04-21T13:29:48.197Z,283.06
2019-04-21T13:30:46.849Z,280.61
2019-04-21T13:31:47.983Z,281.05
2019-04-21T13:32:47.063Z,274.94
2019-04-21T13:33:48.031Z,280.35
2019-04-21T13:34:47.815Z,283.97
2019-04-21T13:35:46.865Z,280.99
2019-04-21T13:36:47.688Z,281.17
2019-04-21T13:37:49.316Z,282.08
2019-04-21T13:39:22.122Z,279.66
2019-04-21T13:40:07.556Z,275.69
2019-04-21T13:41:03.875Z,281.23